Time;durP1;ratioP1;P1;durP2;ratioP2;P2;SDS_P1;SDS_P2;PMS_P1;PMS_P2;Temp;Humidity;BMP_temperature;BMP_pressure;BME280_temperature;BME280_humidity;BME280_pressure;Samples;Min_cycle;Max_cycle;Signal;HPM_P1;HPM_P2
2022/09/18 00:01:00;;;;;;;8.20;1.40;;;;;;;8.52;96.56;100278.42;107558;1280;61713;-78
2022/09/18 00:03:28;;;;;;;5.40;1.10;;;;;;;8.53;96.59;100271.46;107366;1281;59540;-79
2022/09/18 00:05:55;;;;;;;8.20;1.60;;;;;;;8.53;96.52;100275.75;107354;1281;73488;-79
2022/09/18 00:08:22;;;;;;;7.30;1.40;;;;;;;8.53;96.28;100274.63;107388;1281;71926;-80
2022/09/18 00:10:49;;;;;;;7.60;1.50;;;;;;;8.53;96.55;100281.01;107610;1280;73263;-78
2022/09/18 00:13:16;;;;;;;8.40;1.40;;;;;;;8.53;96.06;100276.77;107721;1281;61213;-78
2022/09/18 00:15:53;;;;;;;8.30;1.60;;;;;;;8.52;96.20;100278.07;107459;1281;62030;-78
2022/09/18 00:18:20;;;;;;;8.40;1.50;;;;;;;8.51;96.27;100278.07;107556;1280;75967;-78
2022/09/18 00:20:47;;;;;;;12.00;1.80;;;;;;;8.50;96.53;100277.86;107599;1280;72906;-77
2022/09/18 00:23:14;;;;;;;7.20;1.30;;;;;;;8.50;96.30;100282.73;107574;1281;75966;-78
2022/09/18 00:25:41;;;;;;;9.90;1.80;;;;;;;8.52;96.03;100283.20;107544;1279;61800;-77
2022/09/18 00:28:08;;;;;;;7.00;1.10;;;;;;;8.50;96.25;100290.54;107381;1281;61720;-77
2022/09/18 00:30:35;;;;;;;6.70;1.30;;;;;;;8.54;96.30;100290.95;107624;1280;73521;-79
2022/09/18 00:33:02;;;;;;;5.80;1.20;;;;;;;8.55;96.32;100290.64;107371;1279;72687;-78
2022/09/18 00:35:28;;;;;;;10.40;1.40;;;;;;;8.57;96.22;100294.99;107374;1281;72670;-78
2022/09/18 00:37:56;;;;;;;9.10;1.40;;;;;;;8.57;96.43;100291.63;107371;1279;61365;-79
2022/09/18 00:40:23;;;;;;;8.80;2.00;;;;;;;8.57;96.50;100297.11;107424;1281;60365;-78
2022/09/18 00:42:50;;;;;;;7.20;1.40;;;;;;;8.57;96.62;100298.88;107388;1281;76041;-79
2022/09/18 00:45:16;;;;;;;8.20;1.20;;;;;;;8.60;96.55;100295.25;107432;1280;71124;-78
2022/09/18 00:47:47;;;;;;;8.30;1.50;;;;;;;8.62;96.33;100299.84;107323;1281;72793;-78
2022/09/18 00:50:19;;;;;;;8.20;1.60;;;;;;;8.67;96.45;100300.44;107379;1281;61941;-78
2022/09/18 00:53:00;;;;;;;7.10;1.50;;;;;;;8.71;96.06;100302.84;107712;1279;60805;-78
2022/09/18 00:55:33;;;;;;;11.20;1.80;;;;;;;8.76;96.39;100300.70;107752;1280;75920;-78
2022/09/18 00:58:01;;;;;;;9.60;1.80;;;;;;;8.79;96.14;100311.99;107465;1281;70538;-79
2022/09/18 01:00:30;;;;;;;10.80;1.60;;;;;;;8.81;96.10;100304.64;107568;1280;71955;-79
2022/09/18 01:03:00;;;;;;;10.30;2.10;;;;;;;8.84;95.90;100305.23;107424;1281;61264;-79
2022/09/18 01:06:02;;;;;;;10.80;1.50;;;;;;;8.86;95.91;100308.36;107569;1281;59300;-79
2022/09/18 01:08:36;;;;;;;8.00;1.50;;;;;;;8.88;95.81;100305.14;107171;1286;76521;-79
2022/09/18 01:11:21;;;;;;;6.80;1.30;;;;;;;8.90;95.80;100307.90;107536;1279;72707;-79
2022/09/18 01:14:06;;;;;;;9.20;1.70;;;;;;;8.93;95.46;100306.86;107557;1279;74245;-80
2022/09/18 01:16:56;;;;;;;7.00;1.50;;;;;;;8.97;95.53;100298.23;107401;1281;61365;-79
2022/09/18 01:19:47;;;;;;;7.10;1.50;;;;;;;9.00;95.55;100302.42;107539;1280;59149;-79
2022/09/18 01:22:33;;;;;;;7.50;1.20;;;;;;;9.00;95.56;100300.47;107548;1279;76754;-79
2022/09/18 01:25:29;;;;;;;6.20;1.30;;;;;;;9.00;95.51;100302.43;107600;1281;72636;-80
2022/09/18 01:28:46;;;;;;;8.50;1.50;;;;;;;9.02;95.40;100300.76;107585;1281;72954;-80
2022/09/18 01:31:30;;;;;;;10.60;1.50;;;;;;;9.04;95.36;100295.73;107167;1285;62313;-79
2022/09/18 01:34:12;;;;;;;10.80;1.60;;;;;;;9.07;95.24;100299.48;107501;1279;62036;-78
2022/09/18 01:36:45;;;;;;;9.90;1.70;;;;;;;9.09;94.98;100292.75;107503;1280;73735;-78
2022/09/18 01:39:22;;;;;;;9.20;1.60;;;;;;;9.11;94.97;100287.55;107535;1279;72412;-78
2022/09/18 01:41:50;;;;;;;9.60;1.60;;;;;;;9.14;94.70;100291.55;107529;1279;71530;-79
2022/09/18 01:44:22;;;;;;;9.00;1.50;;;;;;;9.16;94.40;100294.73;107513;1281;61643;-79
2022/09/18 01:46:50;;;;;;;9.20;1.60;;;;;;;9.18;94.20;100300.96;107560;1281;61693;-78
2022/09/18 01:49:22;;;;;;;9.10;1.50;;;;;;;9.20;94.27;100298.46;107534;1279;75968;-79
2022/09/18 01:52:17;;;;;;;7.60;1.30;;;;;;;9.19;94.00;100303.70;107384;1281;70639;-78
2022/09/18 01:54:48;;;;;;;8.70;1.30;;;;;;;9.21;93.90;100306.65;107375;1281;73542;-78
2022/09/18 01:57:28;;;;;;;6.80;1.20;;;;;;;9.19;93.78;100310.94;107529;1280;62845;-78
2022/09/18 02:00:01;;;;;;;6.60;1.00;;;;;;;9.18;93.77;100305.03;107583;1279;60506;-79
2022/09/18 02:02:42;;;;;;;6.90;1.50;;;;;;;9.18;93.84;100312.48;107560;1280;75750;-79
2022/09/18 02:05:13;;;;;;;5.00;1.40;;;;;;;9.13;93.90;100303.30;107628;1279;72752;-79
2022/09/18 02:07:57;;;;;;;6.40;0.90;;;;;;;9.11;93.88;100306.57;107589;1279;72865;-78
2022/09/18 02:10:29;;;;;;;5.40;1.20;;;;;;;9.09;93.73;100300.45;107388;1281;61196;-80
2022/09/18 02:12:56;;;;;;;7.90;1.40;;;;;;;9.03;94.02;100305.09;107392;1282;60686;-79
2022/09/18 02:15:26;;;;;;;10.50;1.80;;;;;;;9.00;94.09;100307.69;107593;1279;74914;-79
2022/09/18 02:17:58;;;;;;;7.70;1.30;;;;;;;8.98;93.93;100308.25;107396;1281;72392;-78
2022/09/18 02:20:28;;;;;;;10.00;1.20;;;;;;;8.97;94.27;100304.02;107583;1279;72887;-78
2022/09/18 02:22:58;;;;;;;5.80;1.10;;;;;;;8.95;94.40;100307.07;107356;1281;62411;-78
2022/09/18 02:25:48;;;;;;;9.30;1.50;;;;;;;8.89;94.20;100303.20;107595;1279;62009;-80
2022/09/18 02:28:18;;;;;;;7.40;1.40;;;;;;;8.86;94.58;100306.11;107599;1280;76322;-79
2022/09/18 02:30:45;;;;;;;9.30;1.70;;;;;;;8.82;94.84;100304.58;107615;1279;72732;-78
2022/09/18 02:33:26;;;;;;;7.50;1.60;;;;;;;8.80;94.74;100301.14;107330;1281;72791;-79
2022/09/18 02:36:09;;;;;;;8.50;1.60;;;;;;;8.76;94.47;100302.91;107654;1281;61930;-79
2022/09/18 02:38:48;;;;;;;8.10;1.40;;;;;;;8.74;94.88;100301.07;107639;1280;60873;-79
2022/09/18 02:41:28;;;;;;;9.80;1.40;;;;;;;8.70;94.76;100301.81;107272;1281;75141;-79
2022/09/18 02:44:18;;;;;;;6.30;1.20;;;;;;;8.66;94.92;100298.81;107625;1279;70362;-80
2022/09/18 02:47:09;;;;;;;7.90;1.70;;;;;;;8.65;94.71;100294.90;107620;1281;72966;-80
2022/09/18 02:49:47;;;;;;;6.60;1.40;;;;;;;8.63;94.75;100291.27;107609;1279;61832;-80
2022/09/18 02:52:26;;;;;;;7.60;1.40;;;;;;;8.64;94.35;100286.70;107570;1281;61775;-79
2022/09/18 02:55:17;;;;;;;6.50;1.40;;;;;;;8.64;94.64;100289.70;107635;1281;74890;-79
2022/09/18 02:57:53;;;;;;;9.20;1.40;;;;;;;8.67;94.61;100293.23;107835;1280;71575;-79
2022/09/18 03:00:20;;;;;;;6.80;1.10;;;;;;;8.70;94.40;100292.65;107598;1279;72542;-80
2022/09/18 03:02:49;;;;;;;5.00;1.00;;;;;;;8.74;94.20;100294.86;107597;1280;62000;-80
2022/09/18 03:05:16;;;;;;;9.50;1.30;;;;;;;8.76;94.09;100294.08;107574;1281;61711;-81
2022/09/18 03:07:43;;;;;;;7.80;1.50;;;;;;;8.79;93.84;100290.96;107536;1280;75347;-81
2022/09/18 03:10:10;;;;;;;6.40;1.40;;;;;;;8.82;93.78;100291.91;107620;1279;72408;-81
2022/09/18 03:12:37;;;;;;;9.30;1.30;;;;;;;8.87;93.57;100289.70;107657;1279;72643;-81
2022/09/18 03:15:05;;;;;;;8.20;1.30;;;;;;;8.90;93.39;100292.16;107450;1281;62522;-81
2022/09/18 03:17:32;;;;;;;7.70;1.30;;;;;;;8.94;93.08;100294.91;107530;1280;60281;-82
2022/09/18 03:19:59;;;;;;;8.50;1.30;;;;;;;8.96;93.06;100289.09;107386;1281;74161;-82
2022/09/18 03:22:26;;;;;;;6.70;1.30;;;;;;;8.98;92.88;100289.10;107606;1280;69754;-81
2022/09/18 03:24:55;;;;;;;5.90;1.20;;;;;;;8.98;92.61;100298.86;107623;1280;72925;-83
2022/09/18 03:27:22;;;;;;;7.50;1.00;;;;;;;8.98;92.44;100296.91;107634;1279;62022;-83
2022/09/18 03:29:49;;;;;;;7.60;1.50;;;;;;;8.98;92.30;100291.48;107606;1281;61303;-84
2022/09/18 03:32:15;;;;;;;7.30;1.20;;;;;;;9.00;92.36;100293.41;107606;1281;75265;-85
2022/09/18 03:34:42;;;;;;;9.20;1.30;;;;;;;9.00;92.53;100290.55;107452;1281;71296;-84
2022/09/18 03:37:09;;;;;;;7.70;1.50;;;;;;;8.99;92.26;100294.20;107656;1280;72990;-84
2022/09/18 03:39:36;;;;;;;6.40;1.10;;;;;;;8.96;92.29;100295.89;107424;1281;61195;-83
2022/09/18 03:42:04;;;;;;;10.80;1.30;;;;;;;8.95;92.52;100295.80;107488;1281;61047;-85
2022/09/18 03:44:30;;;;;;;6.00;1.10;;;;;;;8.94;92.44;100291.57;107352;1281;74141;-85
2022/09/18 03:46:57;;;;;;;7.40;1.20;;;;;;;8.92;92.73;100290.06;107466;1273;70068;-85
2022/09/18 03:49:25;;;;;;;6.80;1.10;;;;;;;8.90;92.61;100288.88;107856;1278;72391;-84
2022/09/18 03:51:52;;;;;;;7.20;1.20;;;;;;;8.88;93.19;100293.70;107396;1279;62763;-85
2022/09/18 03:54:19;;;;;;;4.80;1.00;;;;;;;8.87;93.18;100291.08;107577;1279;60573;-84
2022/09/18 03:56:46;;;;;;;6.40;1.20;;;;;;;8.89;93.26;100283.66;107820;1279;74762;-84
2022/09/18 03:59:13;;;;;;;9.00;1.50;;;;;;;8.90;93.42;100288.25;107912;1276;71415;-85
2022/09/18 04:01:40;;;;;;;7.80;1.40;;;;;;;8.91;93.03;100282.92;107892;1279;73243;-84
2022/09/18 04:04:07;;;;;;;6.40;1.30;;;;;;;8.91;93.14;100282.92;107914;1279;59747;-83
2022/09/18 04:06:34;;;;;;;4.20;1.00;;;;;;;8.89;93.11;100294.46;107728;1280;62372;-83
2022/09/18 04:09:01;;;;;;;9.50;1.30;;;;;;;8.88;93.16;100293.17;107645;1279;73887;-85
2022/09/18 04:11:29;;;;;;;8.90;1.20;;;;;;;8.87;93.11;100290.10;107689;1280;71579;-84
2022/09/18 04:13:55;;;;;;;4.60;1.10;;;;;;;8.84;93.28;100290.80;107587;1281;71955;-85
2022/09/18 04:16:23;;;;;;;8.20;1.40;;;;;;;8.82;93.08;100280.46;107735;1280;61909;-84
2022/09/18 04:18:50;;;;;;;4.80;1.10;;;;;;;8.80;93.33;100282.19;107761;1280;61496;-85
2022/09/18 04:21:17;;;;;;;7.90;1.50;;;;;;;8.79;93.36;100286.23;107592;1280;74904;-85
2022/09/18 04:23:44;;;;;;;5.00;1.00;;;;;;;8.78;93.41;100285.33;107416;1276;72440;-84
2022/09/18 04:26:11;;;;;;;7.10;1.30;;;;;;;8.77;93.57;100285.75;107894;1278;72656;-84
2022/09/18 04:28:37;;;;;;;7.30;1.30;;;;;;;8.77;93.87;100287.30;108061;1277;60109;-85
2022/09/18 04:31:07;;;;;;;7.00;1.20;;;;;;;8.77;93.72;100283.30;107974;1269;59440;-83
2022/09/18 04:33:34;;;;;;;8.30;1.30;;;;;;;8.76;93.55;100281.39;107659;1280;74032;-85
2022/09/18 04:36:01;;;;;;;6.10;1.30;;;;;;;8.77;93.85;100283.79;107753;1279;71782;-83
2022/09/18 04:38:28;;;;;;;7.50;1.30;;;;;;;8.80;93.74;100279.06;107759;1280;74170;-84
2022/09/18 04:40:56;;;;;;;6.50;1.20;;;;;;;8.85;93.23;100285.02;107862;1280;60375;-84
2022/09/18 04:43:24;;;;;;;8.50;1.40;;;;;;;8.88;93.33;100284.67;107942;1278;59473;-84
2022/09/18 04:45:52;;;;;;;10.50;1.60;;;;;;;8.90;92.92;100279.27;107891;1280;74940;-84
2022/09/18 04:48:20;;;;;;;9.00;1.30;;;;;;;8.92;92.91;100285.45;107932;1279;71829;-83
2022/09/18 04:50:48;;;;;;;6.80;1.40;;;;;;;8.95;92.56;100286.48;108060;1280;73000;-84
2022/09/18 04:53:15;;;;;;;6.00;1.40;;;;;;;8.95;92.31;100284.39;107896;1280;61293;-84
2022/09/18 04:55:43;;;;;;;3.60;1.30;;;;;;;8.97;92.45;100286.27;107980;1279;60283;-83
2022/09/18 04:58:12;;;;;;;7.40;1.30;;;;;;;8.96;92.09;100291.79;108036;1280;75895;-84
2022/09/18 05:00:38;;;;;;;9.40;1.20;;;;;;;8.95;92.09;100295.54;107743;1280;72751;-84
2022/09/18 05:03:06;;;;;;;6.90;1.20;;;;;;;8.95;91.85;100295.64;107679;1279;73794;-85
2022/09/18 05:05:34;;;;;;;7.40;1.40;;;;;;;8.98;91.94;100293.41;107557;1280;61461;-84
2022/09/18 05:08:01;;;;;;;10.90;1.20;;;;;;;8.97;91.86;100287.69;107860;1277;60590;-81
2022/09/18 05:10:28;;;;;;;6.70;1.50;;;;;;;9.00;91.66;100291.48;107844;1279;75168;-84
2022/09/18 05:12:54;;;;;;;10.10;1.40;;;;;;;9.03;91.71;100284.25;107804;1279;71677;-81
2022/09/18 05:15:21;;;;;;;7.50;1.20;;;;;;;9.04;91.80;100285.46;107859;1279;73816;-84
2022/09/18 05:17:56;;;;;;;6.60;1.20;;;;;;;9.08;91.43;100294.54;107681;1280;61238;-82
2022/09/18 05:20:23;;;;;;;8.60;1.50;;;;;;;9.13;91.32;100293.29;107794;1280;59503;-82
2022/09/18 05:22:49;;;;;;;6.80;1.10;;;;;;;9.19;91.13;100286.14;107900;1278;76136;-84
2022/09/18 05:25:19;;;;;;;8.60;1.10;;;;;;;9.24;91.02;100291.92;107866;1279;71519;-84
2022/09/18 05:27:53;;;;;;;8.90;1.40;;;;;;;9.28;90.72;100281.66;107517;1281;71403;-85
2022/09/18 05:30:21;;;;;;;6.70;1.20;;;;;;;9.35;90.94;100283.94;107859;1279;60335;-84
2022/09/18 05:33:01;;;;;;;7.40;1.20;;;;;;;9.40;90.66;100290.75;107624;1280;60578;-84
2022/09/18 05:35:30;;;;;;;8.10;1.20;;;;;;;9.44;90.45;100293.27;108017;1276;74683;-85
2022/09/18 05:37:57;;;;;;;6.40;1.40;;;;;;;9.49;90.06;100289.19;107930;1277;71729;-83
2022/09/18 05:40:29;;;;;;;7.80;1.20;;;;;;;9.54;89.73;100280.24;108431;1277;73610;-84
2022/09/18 05:42:57;;;;;;;6.90;1.10;;;;;;;9.61;89.72;100277.38;107682;1279;60484;-84
2022/09/18 05:45:24;;;;;;;5.20;1.00;;;;;;;9.63;89.31;100276.23;107929;1279;61830;-85
2022/09/18 05:48:05;;;;;;;5.50;1.20;;;;;;;9.68;88.93;100274.39;107828;1278;74844;-83
2022/09/18 05:50:33;;;;;;;5.30;1.10;;;;;;;9.69;88.33;100280.15;107880;1280;71853;-83
2022/09/18 05:53:09;;;;;;;7.10;1.20;;;;;;;9.75;87.87;100280.20;107730;1279;73038;-83
2022/09/18 05:55:37;;;;;;;5.20;1.20;;;;;;;9.77;87.73;100277.35;107649;1270;61205;-85
2022/09/18 05:58:12;;;;;;;6.20;0.90;;;;;;;9.82;87.85;100276.64;107812;1268;61754;-84
2022/09/18 06:00:39;;;;;;;6.30;1.00;;;;;;;9.84;87.62;100284.55;107863;1270;76286;-83
2022/09/18 06:03:10;;;;;;;8.10;1.50;;;;;;;9.85;87.40;100281.82;107956;1272;73323;-83
2022/09/18 06:05:38;;;;;;;4.60;1.10;;;;;;;9.88;87.54;100289.97;107718;1279;72983;-84
2022/09/18 06:08:07;;;;;;;5.90;0.90;;;;;;;9.89;87.88;100295.49;107758;1275;60923;-84
2022/09/18 06:10:38;;;;;;;7.10;1.50;;;;;;;9.86;87.92;100288.65;107917;1277;60280;-83
2022/09/18 06:13:16;;;;;;;7.20;1.00;;;;;;;9.85;88.23;100288.74;107987;1277;74757;-84
2022/09/18 06:15:48;;;;;;;7.20;1.40;;;;;;;9.86;88.37;100290.95;107832;1280;71182;-85
2022/09/18 06:18:15;;;;;;;8.40;1.10;;;;;;;9.89;88.82;100285.06;107589;1273;72981;-83
2022/09/18 06:20:43;;;;;;;7.30;1.40;;;;;;;9.95;88.82;100286.34;107977;1277;63217;-85
2022/09/18 06:23:12;;;;;;;7.00;1.40;;;;;;;10.02;88.87;100290.27;107772;1280;60520;-82
2022/09/18 06:25:39;;;;;;;6.20;1.10;;;;;;;10.07;88.91;100291.23;107871;1278;76535;-85
2022/09/18 06:28:06;;;;;;;6.00;1.00;;;;;;;10.12;88.64;100281.48;107857;1278;73573;-85
2022/09/18 06:30:35;;;;;;;6.80;1.30;;;;;;;10.18;88.34;100292.55;107759;1278;73585;-85
2022/09/18 06:33:04;;;;;;;7.20;1.30;;;;;;;10.28;87.95;100282.98;107612;1280;59682;-78
2022/09/18 06:35:35;;;;;;;7.40;1.50;;;;;;;10.39;87.76;100286.25;106709;1277;1568515;-79
2022/09/18 06:38:03;;;;;;;4.60;1.10;;;;;;;10.50;87.28;100286.20;107751;1280;74612;-78
2022/09/18 06:40:31;;;;;;;10.20;1.30;;;;;;;10.61;86.45;100284.80;107800;1278;71838;-78
2022/09/18 06:43:00;;;;;;;6.10;1.20;;;;;;;10.75;85.77;100279.48;107906;1279;73614;-77
2022/09/18 06:45:28;;;;;;;9.30;1.70;;;;;;;10.80;85.21;100277.70;107894;1278;61863;-78
2022/09/18 06:47:59;;;;;;;6.80;1.20;;;;;;;10.83;85.17;100284.11;107651;1280;60653;-79
2022/09/18 06:50:26;;;;;;;5.30;1.50;;;;;;;10.85;84.56;100293.36;107651;1279;73827;-78
2022/09/18 06:52:53;;;;;;;6.30;1.10;;;;;;;10.88;84.29;100301.69;107898;1277;72787;-79
2022/09/18 06:55:20;;;;;;;9.40;1.50;;;;;;;10.93;84.64;100297.23;107590;1279;72774;-78
2022/09/18 06:57:56;;;;;;;4.20;1.10;;;;;;;11.03;84.58;100300.66;107874;1280;62036;-80
2022/09/18 07:00:23;;;;;;;5.50;1.10;;;;;;;11.03;84.12;100307.52;107876;1280;59943;-77
2022/09/18 07:02:58;;;;;;;6.80;0.90;;;;;;;11.01;84.37;100298.15;107475;1280;74634;-78
2022/09/18 07:05:27;;;;;;;7.20;1.00;;;;;;;10.97;85.33;100300.27;107522;1280;70177;-78
2022/09/18 07:07:54;;;;;;;6.40;1.10;;;;;;;10.90;86.82;100294.96;107697;1280;73293;-77
2022/09/18 07:10:21;;;;;;;5.30;1.10;;;;;;;10.75;87.28;100296.16;107782;1279;62027;-77
2022/09/18 07:12:48;;;;;;;9.80;1.20;;;;;;;10.71;88.20;100288.44;107596;1280;61359;-78
2022/09/18 07:15:16;;;;;;;10.20;1.70;;;;;;;10.67;88.94;100287.97;107886;1279;75996;-78
2022/09/18 07:17:44;;;;;;;7.00;1.20;;;;;;;10.64;89.20;100286.20;107885;1280;71096;-79
2022/09/18 07:20:12;;;;;;;7.10;1.00;;;;;;;10.74;89.17;100285.73;107415;1280;73702;-79
2022/09/18 07:22:39;;;;;;;10.40;1.30;;;;;;;10.83;88.71;100288.92;107620;1280;61270;-79
2022/09/18 07:25:12;;;;;;;5.90;1.20;;;;;;;10.89;88.34;100280.91;107854;1279;60075;-79
2022/09/18 07:27:39;;;;;;;6.80;1.30;;;;;;;10.95;88.30;100289.86;107767;1280;73624;-79
2022/09/18 07:30:07;;;;;;;5.90;1.40;;;;;;;10.98;87.93;100284.23;107833;1278;71694;-78
2022/09/18 07:32:34;;;;;;;6.90;1.40;;;;;;;11.04;87.70;100284.45;107753;1279;73005;-78
2022/09/18 07:35:01;;;;;;;7.90;2.10;;;;;;;11.15;88.02;100285.33;107556;1279;62588;-78
2022/09/18 07:37:28;;;;;;;5.50;1.20;;;;;;;11.25;87.33;100286.23;107723;1280;60631;-78
2022/09/18 07:39:55;;;;;;;7.60;1.50;;;;;;;11.34;86.83;100282.97;107669;1279;77618;-78
2022/09/18 07:42:22;;;;;;;9.40;1.40;;;;;;;11.52;86.91;100285.25;107452;1280;71598;-78
2022/09/18 07:44:49;;;;;;;7.50;1.30;;;;;;;11.66;84.81;100288.60;107597;1280;74855;-79
2022/09/18 07:47:16;;;;;;;7.80;1.30;;;;;;;11.85;84.36;100286.58;107578;1280;62387;-78
2022/09/18 07:49:43;;;;;;;7.00;1.20;;;;;;;12.03;83.61;100279.17;107602;1280;63521;-78
2022/09/18 07:52:10;;;;;;;5.90;1.40;;;;;;;12.25;82.15;100278.11;107682;1280;75047;-78
2022/09/18 07:54:37;;;;;;;10.20;2.00;;;;;;;12.47;82.12;100282.57;107775;1280;70287;-78
2022/09/18 07:57:04;;;;;;;6.00;1.10;;;;;;;12.57;81.02;100277.58;107574;1280;73674;-78
2022/09/18 07:59:32;;;;;;;7.90;1.40;;;;;;;12.53;80.09;100277.39;107669;1281;61200;-78
2022/09/18 08:01:59;;;;;;;7.10;1.50;;;;;;;12.49;80.54;100273.20;107439;1280;61472;-78
2022/09/18 08:04:26;;;;;;;5.40;1.20;;;;;;;12.30;83.02;100284.52;107686;1281;75096;-80
2022/09/18 08:06:54;;;;;;;6.50;1.10;;;;;;;12.00;84.15;100290.00;107696;1280;71524;-77
2022/09/18 08:09:21;;;;;;;7.70;1.70;;;;;;;11.65;85.50;100299.74;107551;1280;72923;-77
2022/09/18 08:11:51;;;;;;;10.30;1.80;;;;;;;11.35;87.95;100292.77;107576;1281;60847;-78
2022/09/18 08:14:17;;;;;;;5.20;1.30;;;;;;;11.11;89.18;100278.13;107824;1280;60354;-79
2022/09/18 08:16:44;;;;;;;7.40;1.30;;;;;;;10.91;92.93;100272.98;107553;1280;74047;-77
2022/09/18 08:19:14;;;;;;;6.80;1.50;;;;;;;10.77;95.63;100287.54;107618;1280;71826;-78
2022/09/18 08:21:41;;;;;;;7.10;1.40;;;;;;;10.69;96.50;100284.88;107739;1281;73551;-80
2022/09/18 08:24:08;;;;;;;7.20;1.30;;;;;;;10.69;97.19;100287.09;107694;1280;62675;-79
2022/09/18 08:26:37;;;;;;;7.00;1.50;;;;;;;10.79;97.85;100286.42;107808;1280;60633;-79
2022/09/18 08:29:05;;;;;;;5.90;1.40;;;;;;;10.93;97.23;100286.64;107693;1280;75969;-80
2022/09/18 08:31:32;;;;;;;5.60;1.40;;;;;;;11.18;96.97;100284.77;107910;1279;71563;-80
2022/09/18 08:34:00;;;;;;;5.50;1.60;;;;;;;11.39;95.68;100291.10;107815;1280;72959;-79
2022/09/18 08:36:27;;;;;;;2.80;0.70;;;;;;;11.53;94.15;100287.89;107642;1281;61039;-79
2022/09/18 08:38:54;;;;;;;4.90;0.80;;;;;;;11.58;90.48;100294.73;108082;1280;60453;-81
2022/09/18 08:41:25;;;;;;;6.60;1.00;;;;;;;11.59;88.26;100288.41;107874;1281;74833;-80
2022/09/18 08:44:15;;;;;;;3.80;0.80;;;;;;;11.56;88.39;100289.48;108093;1279;71609;-80
2022/09/18 08:47:00;;;;;;;3.60;0.70;;;;;;;11.49;88.58;100290.91;108003;1280;72713;-79
2022/09/18 08:49:53;;;;;;;4.80;0.80;;;;;;;11.56;90.03;100289.16;107936;1280;62251;-78
2022/09/18 08:52:22;;;;;;;4.00;0.70;;;;;;;11.54;88.40;100281.88;107853;1280;60039;-79
2022/09/18 08:54:55;;;;;;;3.30;0.80;;;;;;;11.51;86.97;100290.81;107661;1279;76052;-78
2022/09/18 08:57:27;;;;;;;3.20;0.80;;;;;;;11.54;86.67;100286.38;107853;1279;71599;-78
2022/09/18 09:00:21;;;;;;;4.40;0.90;;;;;;;11.65;87.02;100286.02;107661;1281;73118;-78
2022/09/18 09:02:51;;;;;;;5.90;1.10;;;;;;;11.75;86.31;100275.39;107646;1280;60730;-78
2022/09/18 09:05:21;;;;;;;3.40;1.00;;;;;;;11.88;86.29;100278.80;107499;1280;60504;-78
2022/09/18 09:08:16;;;;;;;5.30;1.10;;;;;;;12.01;84.80;100273.63;107910;1279;74619;-78
2022/09/18 09:10:57;;;;;;;4.90;0.80;;;;;;;12.15;83.82;100271.67;107424;1281;71948;-78
2022/09/18 09:13:52;;;;;;;5.20;0.90;;;;;;;12.24;82.93;100265.55;107836;1280;72283;-79
2022/09/18 09:16:39;;;;;;;6.80;1.20;;;;;;;12.36;83.54;100273.39;107848;1281;62328;-80
2022/09/18 09:19:27;;;;;;;5.40;1.00;;;;;;;12.40;82.31;100266.05;107645;1281;60299;-78
2022/09/18 09:22:17;;;;;;;5.00;0.80;;;;;;;12.57;81.64;100274.64;107873;1280;75574;-78
2022/09/18 09:25:05;;;;;;;4.80;0.90;;;;;;;12.65;81.03;100267.59;107889;1280;71218;-78
2022/09/18 09:27:41;;;;;;;6.00;1.20;;;;;;;12.59;81.34;100254.26;107888;1279;74198;-79
2022/09/18 09:30:15;;;;;;;4.20;0.80;;;;;;;12.46;80.77;100253.66;107794;1280;62427;-79
2022/09/18 09:33:05;;;;;;;4.50;0.90;;;;;;;12.43;80.16;100236.14;107592;1280;59582;-80
2022/09/18 09:35:45;;;;;;;4.00;0.90;;;;;;;12.41;79.66;100239.56;107836;1279;74916;-80
2022/09/18 09:38:40;;;;;;;3.80;0.80;;;;;;;12.41;79.89;100242.95;107626;1280;72933;-80
2022/09/18 09:41:27;;;;;;;5.00;0.90;;;;;;;12.31;79.30;100251.47;107552;1281;74111;-80
2022/09/18 09:44:02;;;;;;;5.30;0.90;;;;;;;12.34;80.19;100255.55;107881;1279;62316;-80
2022/09/18 09:46:47;;;;;;;4.10;0.90;;;;;;;12.57;80.32;100251.41;107901;1279;61898;-80
2022/09/18 09:49:25;;;;;;;3.80;1.10;;;;;;;12.83;80.20;100252.29;107923;1280;75018;-79
2022/09/18 09:52:04;;;;;;;3.30;0.90;;;;;;;12.98;79.10;100252.61;107920;1280;72515;-80
2022/09/18 09:54:35;;;;;;;3.20;0.80;;;;;;;13.13;79.19;100256.65;107942;1279;71843;-80
2022/09/18 09:57:18;;;;;;;3.00;0.70;;;;;;;13.22;76.96;100252.00;107734;1279;61611;-80
2022/09/18 09:59:50;;;;;;;4.40;0.90;;;;;;;13.28;76.46;100246.57;107866;1280;60677;-78
2022/09/18 10:02:26;;;;;;;4.30;0.90;;;;;;;13.31;75.96;100232.45;107820;1279;76009;-79
2022/09/18 10:05:17;;;;;;;2.30;0.80;;;;;;;13.23;75.13;100234.34;107789;1280;71894;-77
2022/09/18 10:07:51;;;;;;;6.60;1.10;;;;;;;13.08;75.34;100224.98;107817;1280;71894;-78
2022/09/18 10:10:44;;;;;;;4.30;0.90;;;;;;;12.92;75.06;100230.64;107625;1280;62112;-78
2022/09/18 10:13:19;;;;;;;4.50;0.80;;;;;;;12.82;74.82;100224.67;107814;1279;61347;-78
2022/09/18 10:15:49;;;;;;;5.20;0.90;;;;;;;12.79;75.26;100233.20;107714;1279;75818;-79
2022/09/18 10:18:20;;;;;;;2.30;0.70;;;;;;;12.88;75.80;100231.16;107610;1280;72092;-78
2022/09/18 10:20:52;;;;;;;3.70;1.00;;;;;;;12.95;74.95;100227.29;107637;1280;73134;-78
2022/09/18 10:23:28;;;;;;;4.50;0.70;;;;;;;12.88;73.95;100224.69;107598;1280;61556;-76
2022/09/18 10:26:00;;;;;;;2.80;0.60;;;;;;;12.85;74.94;100225.05;107789;1279;60761;-78
2022/09/18 10:28:28;;;;;;;3.70;0.80;;;;;;;12.84;75.29;100217.89;107855;1279;75884;-78
2022/09/18 10:31:09;;;;;;;2.70;0.50;;;;;;;12.91;75.85;100223.15;107592;1280;71517;-79
2022/09/18 10:33:51;;;;;;;3.00;0.70;;;;;;;12.98;75.76;100224.88;107932;1279;75149;-79
2022/09/18 10:36:50;;;;;;;3.90;0.70;;;;;;;13.04;75.01;100228.00;107893;1280;63076;-79
2022/09/18 10:39:35;;;;;;;4.30;0.70;;;;;;;13.07;73.97;100223.54;107407;1279;60520;-79
2022/09/18 10:42:03;;;;;;;3.40;0.80;;;;;;;13.23;74.34;100229.78;107773;1280;76329;-79
2022/09/18 10:44:42;;;;;;;3.60;0.50;;;;;;;13.26;72.36;100245.24;107848;1278;70929;-79
2022/09/18 10:47:18;;;;;;;2.80;0.70;;;;;;;13.31;71.25;100226.25;107922;1280;72927;-79
2022/09/18 10:49:53;;;;;;;2.80;0.60;;;;;;;13.37;69.76;100235.73;107703;1280;62104;-79
2022/09/18 10:52:26;;;;;;;2.80;0.60;;;;;;;13.36;70.15;100223.47;107906;1279;61387;-79
2022/09/18 10:55:17;;;;;;;2.70;0.60;;;;;;;13.22;69.98;100233.64;107638;1280;75926;-79
2022/09/18 10:57:55;;;;;;;3.70;0.60;;;;;;;13.04;70.45;100212.02;107907;1279;71189;-80
2022/09/18 11:00:23;;;;;;;2.60;0.60;;;;;;;12.91;72.18;100224.58;107848;1280;72466;-79
2022/09/18 11:03:11;;;;;;;2.60;0.70;;;;;;;12.75;73.71;100228.14;107880;1279;62765;-79
2022/09/18 11:06:06;;;;;;;2.70;0.90;;;;;;;12.59;74.60;100216.64;107876;1279;60356;-80
2022/09/18 11:08:40;;;;;;;3.80;0.80;;;;;;;12.57;75.28;100210.41;107963;1279;75006;-79
2022/09/18 11:11:11;;;;;;;3.00;0.70;;;;;;;12.72;74.92;100214.80;107772;1279;72554;-79
2022/09/18 11:13:52;;;;;;;2.90;0.70;;;;;;;12.77;74.12;100215.91;107520;1279;72802;-80
2022/09/18 11:16:27;;;;;;;3.80;1.00;;;;;;;12.82;74.28;100207.11;107924;1279;62091;-79
2022/09/18 11:19:25;;;;;;;3.50;0.60;;;;;;;12.91;73.33;100200.79;107617;1280;61373;-79
2022/09/18 11:21:58;;;;;;;3.10;0.90;;;;;;;12.96;73.55;100202.92;107903;1280;75193;-80
2022/09/18 11:24:30;;;;;;;5.40;1.00;;;;;;;13.01;72.80;100190.67;107656;1279;71256;-79
2022/09/18 11:26:59;;;;;;;2.40;0.70;;;;;;;13.03;73.29;100198.46;107885;1279;72730;-79
2022/09/18 11:29:32;;;;;;;2.40;0.60;;;;;;;12.99;72.69;100208.58;107638;1279;62870;-78
2022/09/18 11:32:17;;;;;;;2.50;0.60;;;;;;;12.91;70.96;100197.74;107629;1279;61705;-79
2022/09/18 11:34:56;;;;;;;2.60;0.70;;;;;;;12.92;71.30;100204.06;107726;1280;74898;-79
2022/09/18 11:37:51;;;;;;;3.20;0.80;;;;;;;12.95;69.71;100203.62;107897;1277;72452;-79
2022/09/18 11:40:19;;;;;;;3.50;0.50;;;;;;;12.94;69.78;100203.90;107847;1279;73919;-79
2022/09/18 11:42:51;;;;;;;3.00;0.70;;;;;;;12.99;70.34;100205.91;107838;1279;62749;-78
2022/09/18 11:45:33;;;;;;;4.80;0.70;;;;;;;12.96;69.63;100211.08;107787;1279;61458;-79
2022/09/18 11:48:21;;;;;;;3.30;0.60;;;;;;;13.07;69.64;100192.94;107709;1279;75128;-79